Time;durP1;ratioP1;P1;durP2;ratioP2;P2;SDS_P1;SDS_P2;PMS_P1;PMS_P2;Temp;Humidity;BMP_temperature;BMP_pressure;BME280_temperature;BME280_humidity;BME280_pressure;Samples;Min_cycle;Max_cycle;Signal;HPM_P1;HPM_P2
2023/09/05 00:00:46;;;;;;;16.85;16.25;;;21.60;99.90;;;;;;5074142;28;20239;-64
2023/09/05 00:03:13;;;;;;;16.73;16.13;;;21.50;99.90;;;;;;5073543;28;20227;-63
2023/09/05 00:05:40;;;;;;;17.67;17.08;;;21.50;99.90;;;;;;5074279;28;20235;-63
2023/09/05 00:08:07;;;;;;;17.08;16.48;;;21.60;99.90;;;;;;5074046;28;20237;-62
2023/09/05 00:10:35;;;;;;;17.58;16.98;;;21.50;99.90;;;;;;5073937;28;20210;-63
2023/09/05 00:13:06;;;;;;;16.27;15.75;;;21.50;99.90;;;;;;5073514;28;20227;-63
2023/09/05 00:15:32;;;;;;;14.23;13.73;;;21.50;99.90;;;;;;5073811;28;20215;-64
2023/09/05 00:17:59;;;;;;;13.18;12.77;;;21.50;99.90;;;;;;5074046;28;20265;-62
2023/09/05 00:20:26;;;;;;;13.23;12.75;;;21.30;99.90;;;;;;5072357;28;20207;-63
2023/09/05 00:22:53;;;;;;;12.50;12.10;;;21.30;99.90;;;;;;5073110;28;20238;-63
2023/09/05 00:25:20;;;;;;;12.68;12.27;;;21.20;99.90;;;;;;5073432;28;20663;-63
2023/09/05 00:27:48;;;;;;;12.70;12.30;;;21.10;99.90;;;;;;5073237;28;20203;-63
2023/09/05 00:30:16;;;;;;;12.63;12.13;;;21.00;99.90;;;;;;5073613;28;20203;-63
2023/09/05 00:32:43;;;;;;;12.40;12.00;;;20.90;99.90;;;;;;5075052;28;20205;-63
2023/09/05 00:35:11;;;;;;;12.25;11.85;;;20.90;99.90;;;;;;5077862;28;20318;-63
2023/09/05 00:37:38;;;;;;;12.07;11.68;;;20.80;99.90;;;;;;5073730;28;20229;-62
2023/09/05 00:40:06;;;;;;;12.40;12.00;;;20.80;99.90;;;;;;5077943;28;20199;-62
2023/09/05 00:42:32;;;;;;;11.73;11.32;;;20.80;99.90;;;;;;5076087;28;20206;-64
2023/09/05 00:45:01;;;;;;;11.95;11.55;;;20.80;99.90;;;;;;5075633;28;20203;-63
2023/09/05 00:47:29;;;;;;;13.05;12.65;;;20.70;99.90;;;;;;5076088;28;20229;-63
2023/09/05 00:49:56;;;;;;;12.40;12.00;;;20.70;99.90;;;;;;5076366;28;20583;-62
2023/09/05 00:52:25;;;;;;;11.88;11.48;;;20.70;99.90;;;;;;5074810;28;20209;-63
2023/09/05 00:54:52;;;;;;;12.00;11.57;;;20.70;99.90;;;;;;5073710;28;20292;-63
2023/09/05 00:57:21;;;;;;;12.30;11.90;;;20.60;99.90;;;;;;5080623;28;20279;-62
2023/09/05 00:59:48;;;;;;;12.05;11.65;;;20.70;99.90;;;;;;5081825;28;20435;-63
2023/09/05 01:02:16;;;;;;;12.30;11.90;;;20.60;99.90;;;;;;5077019;28;20728;-63
2023/09/05 01:04:43;;;;;;;11.57;11.18;;;20.40;99.90;;;;;;5076722;28;20588;-63
2023/09/05 01:07:17;;;;;;;12.38;11.98;;;20.40;99.90;;;;;;5073130;28;20697;-63
2023/09/05 01:09:52;;;;;;;12.93;12.43;;;20.30;99.90;;;;;;5072774;28;20213;-65
2023/09/05 01:12:19;;;;;;;12.65;12.25;;;20.30;99.90;;;;;;5072473;28;20619;-62
2023/09/05 01:14:45;;;;;;;11.93;11.52;;;20.20;99.90;;;;;;5072269;28;20756;-62
2023/09/05 01:17:12;;;;;;;12.07;11.68;;;20.20;99.90;;;;;;5072511;28;20199;-64
2023/09/05 01:19:42;;;;;;;12.80;12.30;;;20.20;99.90;;;;;;5072157;28;20213;-64
2023/09/05 01:22:18;;;;;;;12.50;12.10;;;20.10;99.90;;;;;;5071996;28;20214;-64
2023/09/05 01:24:49;;;;;;;11.80;11.40;;;20.10;99.90;;;;;;5073247;28;20231;-63
2023/09/05 01:27:19;;;;;;;12.48;12.07;;;20.00;99.90;;;;;;5072157;28;20188;-64
2023/09/05 01:29:52;;;;;;;12.27;11.88;;;20.00;99.90;;;;;;5072266;28;20244;-64
2023/09/05 01:32:20;;;;;;;13.05;12.65;;;19.90;99.90;;;;;;5070375;28;20306;-62
2023/09/05 01:34:47;;;;;;;12.05;11.65;;;19.80;99.90;;;;;;5071587;28;20760;-66
2023/09/05 01:37:15;;;;;;;12.18;11.77;;;19.70;99.90;;;;;;5071896;28;20253;-62
2023/09/05 01:39:42;;;;;;;11.93;11.52;;;19.80;99.90;;;;;;5072124;28;20203;-63
2023/09/05 01:42:10;;;;;;;13.18;12.73;;;19.60;99.90;;;;;;5071415;28;20689;-63
2023/09/05 01:44:38;;;;;;;12.02;11.63;;;19.60;99.90;;;;;;5071639;28;20223;-61
2023/09/05 01:47:05;;;;;;;12.63;12.02;;;19.60;99.90;;;;;;5071803;28;20207;-63
2023/09/05 01:49:32;;;;;;;14.00;13.50;;;19.50;99.90;;;;;;5071446;28;20206;-64
2023/09/05 01:51:59;;;;;;;13.93;13.43;;;19.50;99.90;;;;;;5071585;28;20206;-64
2023/09/05 01:54:26;;;;;;;14.23;13.73;;;19.40;99.90;;;;;;5071275;28;20237;-62
2023/09/05 01:56:53;;;;;;;12.38;11.93;;;19.40;99.90;;;;;;5071804;28;20203;-63
2023/09/05 01:59:22;;;;;;;14.07;13.57;;;19.40;99.90;;;;;;5071198;28;20204;-62
2023/09/05 02:01:49;;;;;;;12.75;12.35;;;19.30;99.90;;;;;;5071387;28;20211;-63
2023/09/05 02:04:16;;;;;;;12.30;11.90;;;19.30;99.90;;;;;;5071571;28;20227;-62
2023/09/05 02:06:42;;;;;;;12.00;11.60;;;19.20;99.90;;;;;;5071905;28;20292;-63
2023/09/05 02:09:09;;;;;;;11.85;11.45;;;19.20;99.90;;;;;;5072215;28;20211;-62
2023/09/05 02:11:36;;;;;;;12.43;12.02;;;19.20;99.90;;;;;;5071182;28;20203;-63
2023/09/05 02:14:03;;;;;;;11.77;11.38;;;19.10;99.90;;;;;;5071303;28;20223;-63
2023/09/05 02:16:33;;;;;;;13.82;13.32;;;19.10;99.90;;;;;;5072021;28;20262;-63
2023/09/05 02:18:59;;;;;;;12.65;12.25;;;19.10;99.90;;;;;;5071610;28;20243;-63
2023/09/05 02:21:26;;;;;;;12.73;12.30;;;19.00;99.90;;;;;;5071865;28;20213;-63
2023/09/05 02:23:53;;;;;;;12.07;11.68;;;19.00;99.90;;;;;;5071824;28;20223;-63
2023/09/05 02:26:20;;;;;;;11.88;11.48;;;19.00;99.90;;;;;;5070951;28;20209;-62
2023/09/05 02:28:47;;;;;;;11.95;11.55;;;19.00;99.90;;;;;;5071300;28;20235;-62
2023/09/05 02:31:13;;;;;;;12.00;11.60;;;18.90;99.90;;;;;;5070945;28;20207;-63
2023/09/05 02:33:42;;;;;;;12.30;11.90;;;18.90;99.90;;;;;;5070732;28;20235;-63
2023/09/05 02:36:15;;;;;;;12.25;11.85;;;19.00;99.90;;;;;;5070892;28;20223;-63
2023/09/05 02:38:42;;;;;;;12.15;11.75;;;18.90;99.90;;;;;;5071001;28;20198;-63
2023/09/05 02:41:12;;;;;;;12.02;11.63;;;18.90;99.90;;;;;;5070668;28;20207;-64
2023/09/05 02:43:39;;;;;;;12.07;11.68;;;18.90;99.90;;;;;;5070023;28;20235;-63
2023/09/05 02:46:06;;;;;;;12.18;11.77;;;18.90;99.90;;;;;;5070675;28;20199;-63
2023/09/05 02:48:33;;;;;;;11.52;11.13;;;18.90;99.90;;;;;;5070865;28;20242;-62
2023/09/05 02:51:06;;;;;;;11.88;11.48;;;18.90;99.90;;;;;;5070560;28;20199;-63
2023/09/05 02:53:33;;;;;;;11.93;11.52;;;18.90;99.90;;;;;;5070984;28;20223;-63
2023/09/05 02:56:00;;;;;;;12.05;11.55;;;19.00;99.90;;;;;;5070789;28;20250;-63
2023/09/05 02:58:28;;;;;;;13.65;13.15;;;19.00;99.90;;;;;;5070692;28;20213;-63
2023/09/05 03:01:02;;;;;;;11.73;11.32;;;19.10;99.90;;;;;;5070510;28;20214;-64
2023/09/05 03:03:29;;;;;;;12.20;11.80;;;19.20;99.90;;;;;;5070374;28;20231;-63
2023/09/05 03:05:56;;;;;;;11.63;11.23;;;19.30;99.90;;;;;;5070523;28;20293;-63
2023/09/05 03:08:24;;;;;;;11.60;11.20;;;19.30;99.90;;;;;;5070815;28;20199;-63
2023/09/05 03:10:52;;;;;;;11.85;11.45;;;19.30;99.90;;;;;;5070535;28;20280;-64
2023/09/05 03:13:19;;;;;;;11.85;11.45;;;19.20;99.90;;;;;;5070392;28;20639;-63
2023/09/05 03:15:49;;;;;;;11.30;10.90;;;19.20;99.90;;;;;;5070503;28;20233;-64
2023/09/05 03:18:15;;;;;;;11.60;11.20;;;19.10;99.90;;;;;;5071606;28;20298;-63
2023/09/05 03:20:42;;;;;;;11.43;11.02;;;19.00;99.90;;;;;;5072429;28;20294;-63
2023/09/05 03:23:11;;;;;;;11.18;10.77;;;19.00;99.90;;;;;;5071570;28;20338;-64
2023/09/05 03:25:39;;;;;;;11.82;11.32;;;19.00;99.90;;;;;;5071479;28;20683;-63
2023/09/05 03:28:07;;;;;;;12.02;11.63;;;18.90;99.90;;;;;;5071163;28;20199;-63
2023/09/05 03:30:33;;;;;;;11.77;11.38;;;18.90;99.90;;;;;;5071861;28;20578;-64
2023/09/05 03:33:00;;;;;;;11.65;11.25;;;18.80;99.90;;;;;;5071024;28;20239;-64
2023/09/05 03:35:27;;;;;;;12.00;11.60;;;18.80;99.90;;;;;;5095072;22;20234;-63
2023/09/05 03:37:54;;;;;;;11.93;11.52;;;18.80;99.90;;;;;;5074890;28;20206;-64
2023/09/05 03:40:21;;;;;;;11.77;11.38;;;18.80;99.90;;;;;;5071511;28;20340;-65
2023/09/05 03:42:49;;;;;;;11.95;11.55;;;18.80;99.90;;;;;;5085893;28;20271;-64
2023/09/05 03:45:16;;;;;;;11.88;11.48;;;18.70;99.90;;;;;;5101871;28;20227;-63
2023/09/05 03:47:42;;;;;;;11.38;10.88;;;18.60;99.90;;;;;;5092815;28;20209;-64
2023/09/05 03:50:09;;;;;;;12.52;12.13;;;18.60;99.90;;;;;;5092244;28;20202;-64
2023/09/05 03:52:36;;;;;;;11.68;11.27;;;18.60;99.90;;;;;;5091572;28;20286;-64
2023/09/05 03:55:03;;;;;;;12.02;11.63;;;18.60;99.90;;;;;;5094487;28;20226;-64
2023/09/05 03:57:30;;;;;;;12.25;11.85;;;18.50;99.90;;;;;;5095518;28;20314;-64
2023/09/05 03:59:58;;;;;;;11.43;11.02;;;18.40;99.90;;;;;;5096488;28;20213;-63
2023/09/05 04:02:25;;;;;;;11.55;11.15;;;18.30;99.90;;;;;;5096147;28;20260;-63
2023/09/05 04:04:57;;;;;;;13.70;13.23;;;18.40;99.90;;;;;;5094922;28;20229;-64
2023/09/05 04:07:24;;;;;;;13.95;13.48;;;18.40;99.90;;;;;;5095712;28;20270;-64
2023/09/05 04:09:51;;;;;;;13.35;12.90;;;18.30;99.90;;;;;;5095066;28;20210;-63
2023/09/05 04:12:18;;;;;;;14.32;13.82;;;18.20;99.90;;;;;;5094841;28;20620;-64
2023/09/05 04:14:45;;;;;;;12.65;12.25;;;18.20;99.90;;;;;;5094756;28;20223;-64
2023/09/05 04:17:13;;;;;;;13.27;12.82;;;18.10;99.90;;;;;;5094758;28;20229;-64
2023/09/05 04:19:40;;;;;;;14.27;13.77;;;18.20;99.90;;;;;;5094399;28;20259;-65
2023/09/05 04:22:07;;;;;;;13.10;12.68;;;18.20;99.90;;;;;;5093810;28;20209;-65
2023/09/05 04:24:33;;;;;;;12.45;12.05;;;18.20;99.90;;;;;;5094346;28;20589;-65
2023/09/05 04:27:00;;;;;;;12.90;12.50;;;18.10;99.90;;;;;;5094342;28;20205;-65
2023/09/05 04:29:27;;;;;;;12.25;11.85;;;18.00;99.90;;;;;;5094238;28;20700;-64
2023/09/05 04:31:55;;;;;;;12.48;12.07;;;17.90;99.90;;;;;;5093810;28;20205;-65
2023/09/05 04:34:23;;;;;;;11.88;11.48;;;17.90;99.90;;;;;;5093942;28;20233;-64
2023/09/05 04:36:50;;;;;;;11.68;11.27;;;17.90;99.90;;;;;;5094580;28;20237;-64
2023/09/05 04:39:17;;;;;;;11.70;11.30;;;17.80;99.90;;;;;;5093968;28;20376;-64
2023/09/05 04:41:44;;;;;;;13.45;12.95;;;17.90;99.90;;;;;;5097405;28;20209;-64
2023/09/05 04:44:11;;;;;;;13.05;12.63;;;17.80;99.90;;;;;;5101601;28;20258;-64
2023/09/05 04:46:39;;;;;;;12.30;11.90;;;17.80;99.90;;;;;;5098163;28;20351;-64
2023/09/05 04:49:06;;;;;;;12.07;11.68;;;17.70;99.90;;;;;;5096565;28;20199;-65
2023/09/05 04:51:34;;;;;;;13.60;13.13;;;17.70;99.90;;;;;;5093905;28;20199;-65
2023/09/05 04:54:01;;;;;;;12.68;12.27;;;17.80;99.90;;;;;;5093545;28;20317;-64
2023/09/05 04:56:28;;;;;;;12.68;12.20;;;17.80;99.90;;;;;;5093734;28;20257;-63
2023/09/05 04:58:55;;;;;;;13.65;13.15;;;17.70;99.90;;;;;;5093254;28;20213;-64
2023/09/05 05:01:22;;;;;;;14.68;14.18;;;17.70;99.90;;;;;;5093778;28;20211;-64
2023/09/05 05:03:49;;;;;;;12.13;11.73;;;17.60;99.90;;;;;;5092783;28;20553;-64
2023/09/05 05:06:15;;;;;;;13.88;13.38;;;17.60;99.90;;;;;;5093064;28;20289;-64
2023/09/05 05:08:43;;;;;;;13.68;13.18;;;17.60;99.90;;;;;;5093038;28;20208;-64
2023/09/05 05:11:10;;;;;;;13.80;13.30;;;17.60;99.90;;;;;;5093293;28;20207;-64
2023/09/05 05:13:37;;;;;;;14.48;13.98;;;17.60;99.90;;;;;;5094158;28;20203;-64
2023/09/05 05:16:04;;;;;;;14.38;13.82;;;17.50;99.90;;;;;;5093999;28;20321;-64
2023/09/05 05:18:31;;;;;;;14.77;14.27;;;17.60;99.90;;;;;;5097138;28;20811;-64
2023/09/05 05:20:58;;;;;;;13.48;12.88;;;17.40;99.90;;;;;;5094493;28;20208;-64
2023/09/05 05:23:25;;;;;;;14.20;13.70;;;17.50;99.90;;;;;;5093687;28;20210;-63
2023/09/05 05:25:53;;;;;;;14.77;14.27;;;17.50;99.90;;;;;;5093344;28;20223;-65
2023/09/05 05:28:19;;;;;;;13.02;12.63;;;17.60;99.90;;;;;;5093162;28;20215;-64
2023/09/05 05:30:46;;;;;;;12.77;12.38;;;17.70;99.90;;;;;;5093246;28;20226;-64
2023/09/05 05:33:13;;;;;;;14.20;13.70;;;17.70;99.90;;;;;;5092461;28;20214;-64
2023/09/05 05:35:40;;;;;;;14.93;14.43;;;17.70;99.90;;;;;;5092748;28;20237;-64
2023/09/05 05:38:07;;;;;;;14.07;13.60;;;17.60;99.90;;;;;;5093094;28;20205;-64
2023/09/05 05:40:33;;;;;;;14.32;13.82;;;17.70;99.90;;;;;;5093103;28;20198;-64
2023/09/05 05:43:02;;;;;;;14.48;13.98;;;17.70;99.90;;;;;;5092359;28;20217;-64
2023/09/05 05:45:28;;;;;;;14.38;13.88;;;17.60;99.90;;;;;;5092727;28;20730;-63
2023/09/05 05:47:57;;;;;;;13.88;13.38;;;17.70;99.90;;;;;;5092686;28;20206;-64
2023/09/05 05:50:23;;;;;;;14.40;13.90;;;17.70;99.90;;;;;;5095423;28;20206;-62
2023/09/05 05:52:50;;;;;;;14.32;13.82;;;17.70;99.90;;;;;;5094562;28;20214;-64
2023/09/05 05:55:17;;;;;;;15.02;14.43;;;17.90;99.90;;;;;;5095980;28;20233;-63
2023/09/05 05:57:44;;;;;;;14.75;14.25;;;17.90;99.90;;;;;;5092583;28;20244;-63
2023/09/05 06:00:13;;;;;;;14.70;14.10;;;17.90;99.90;;;;;;5100267;28;20202;-64
2023/09/05 06:02:40;;;;;;;14.35;13.85;;;17.90;99.90;;;;;;5111285;28;20206;-65
2023/09/05 06:05:08;;;;;;;14.00;13.52;;;17.80;99.90;;;;;;5111553;28;20228;-66
2023/09/05 06:07:35;;;;;;;14.23;13.73;;;17.90;99.90;;;;;;5112561;28;20198;-65
2023/09/05 06:10:02;;;;;;;15.40;14.80;;;18.00;99.90;;;;;;5113166;28;20292;-65
2023/09/05 06:12:29;;;;;;;14.88;14.35;;;18.10;99.90;;;;;;5112412;28;20204;-64
2023/09/05 06:14:55;;;;;;;14.63;14.13;;;18.20;99.90;;;;;;5112189;28;20225;-64
2023/09/05 06:17:24;;;;;;;15.80;15.25;;;18.30;99.90;;;;;;5112114;28;20243;-64
2023/09/05 06:19:51;;;;;;;15.97;15.37;;;18.40;99.90;;;;;;5112471;28;20639;-63
2023/09/05 06:22:19;;;;;;;13.35;12.90;;;18.40;99.90;;;;;;5112526;28;20226;-63
2023/09/05 06:24:45;;;;;;;13.73;13.27;;;18.40;99.90;;;;;;5112433;28;20709;-64
2023/09/05 06:27:12;;;;;;;13.20;12.75;;;18.50;99.90;;;;;;5112100;28;20208;-64
2023/09/05 06:29:39;;;;;;;14.05;13.55;;;18.70;99.90;;;;;;5112226;28;20208;-65
2023/09/05 06:32:06;;;;;;;13.30;12.85;;;18.80;99.90;;;;;;5111874;28;20201;-64
2023/09/05 06:34:35;;;;;;;15.18;14.65;;;18.90;99.90;;;;;;5112116;28;20233;-64
2023/09/05 06:37:01;;;;;;;15.18;14.65;;;19.00;99.90;;;;;;5112487;28;20225;-64
2023/09/05 06:39:29;;;;;;;16.27;15.70;;;19.10;99.90;;;;;;5112039;28;20201;-62
2023/09/05 06:41:56;;;;;;;14.15;13.55;;;19.10;99.90;;;;;;5112470;28;20201;-63
2023/09/05 06:44:23;;;;;;;14.63;14.02;;;19.20;99.90;;;;;;5123984;28;20294;-64
2023/09/05 06:46:50;;;;;;;14.45;13.95;;;19.20;99.90;;;;;;5114593;28;20205;-64
2023/09/05 06:49:16;;;;;;;14.02;13.52;;;19.20;99.90;;;;;;5122545;28;20217;-64
2023/09/05 06:51:45;;;;;;;13.73;13.23;;;19.30;99.90;;;;;;5115379;28;20209;-64
2023/09/05 06:54:12;;;;;;;14.15;13.55;;;19.30;99.90;;;;;;5116475;28;20628;-64
2023/09/05 06:56:39;;;;;;;13.55;13.05;;;19.30;99.90;;;;;;5121525;28;20309;-63
2023/09/05 06:59:17;;;;;;;13.82;13.32;;;19.30;99.90;;;;;;5112124;28;20212;-63
2023/09/05 07:01:44;;;;;;;12.40;12.00;;;19.20;99.90;;;;;;5112082;28;20202;-63
2023/09/05 07:04:10;;;;;;;13.95;13.45;;;19.30;99.90;;;;;;5111402;28;20323;-65
2023/09/05 07:06:39;;;;;;;14.07;13.57;;;19.20;99.90;;;;;;5111769;28;20289;-64
2023/09/05 07:09:07;;;;;;;13.30;12.82;;;19.30;99.90;;;;;;5113022;28;20225;-64
2023/09/05 07:11:34;;;;;;;13.38;12.88;;;19.40;99.90;;;;;;5112379;28;20206;-63
2023/09/05 07:14:01;;;;;;;12.68;12.27;;;19.50;99.90;;;;;;5113127;28;20232;-64
2023/09/05 07:16:28;;;;;;;12.75;12.32;;;19.70;99.90;;;;;;5112522;28;20222;-64
2023/09/05 07:18:55;;;;;;;12.55;12.15;;;19.70;99.90;;;;;;5112729;28;20297;-66
2023/09/05 07:21:22;;;;;;;11.98;11.57;;;19.90;99.90;;;;;;5112827;28;20751;-64
2023/09/05 07:23:48;;;;;;;13.00;12.50;;;20.00;99.90;;;;;;5111896;28;20221;-63
2023/09/05 07:26:17;;;;;;;13.35;12.85;;;20.10;99.90;;;;;;5111394;28;20661;-63
2023/09/05 07:28:46;;;;;;;12.65;12.25;;;20.20;99.90;;;;;;5112745;28;20212;-64
2023/09/05 07:31:14;;;;;;;13.10;12.60;;;20.30;99.90;;;;;;5116771;28;20234;-64
2023/09/05 07:33:41;;;;;;;12.32;11.88;;;20.40;99.90;;;;;;5116006;28;20217;-64
2023/09/05 07:36:08;;;;;;;12.05;11.65;;;20.40;99.90;;;;;;5115685;28;20219;-64
2023/09/05 07:38:35;;;;;;;12.07;11.68;;;20.60;99.90;;;;;;5116090;28;20206;-64
2023/09/05 07:41:02;;;;;;;12.40;12.00;;;20.70;99.90;;;;;;5117065;28;20297;-62
2023/09/05 07:43:32;;;;;;;12.50;12.10;;;20.80;99.90;;;;;;5116216;28;20677;-63
2023/09/05 07:45:59;;;;;;;12.85;12.45;;;20.90;99.90;;;;;;5115413;28;20232;-63
2023/09/05 07:48:26;;;;;;;13.32;12.82;;;21.10;99.90;;;;;;5115404;28;20208;-65
2023/09/05 07:51:00;;;;;;;13.68;13.18;;;21.20;99.90;;;;;;5115413;28;20688;-63
2023/09/05 07:53:26;;;;;;;12.88;12.48;;;21.20;99.90;;;;;;5115137;28;20237;-63
2023/09/05 07:55:53;;;;;;;12.80;12.40;;;21.30;99.90;;;;;;5115142;28;20218;-65
2023/09/05 07:58:20;;;;;;;13.40;12.90;;;21.50;99.90;;;;;;5114849;28;20248;-64
2023/09/05 08:00:49;;;;;;;14.13;13.63;;;21.60;99.90;;;;;;5114739;28;20586;-64
2023/09/05 08:03:17;;;;;;;14.32;13.82;;;21.80;99.90;;;;;;5114728;28;20289;-64
2023/09/05 08:05:44;;;;;;;14.13;13.63;;;21.90;99.90;;;;;;5114969;28;20275;-64
2023/09/05 08:08:10;;;;;;;14.45;13.95;;;22.10;99.90;;;;;;5114552;28;20689;-63
2023/09/05 08:10:37;;;;;;;15.20;14.70;;;22.20;99.90;;;;;;5114929;28;20197;-63
2023/09/05 08:13:05;;;;;;;14.57;14.07;;;22.40;99.90;;;;;;5116215;28;20202;-65
2023/09/05 08:15:33;;;;;;;15.45;14.88;;;22.50;99.90;;;;;;5115735;28;20218;-64
2023/09/05 08:18:01;;;;;;;15.80;15.20;;;22.50;99.90;;;;;;5115482;28;20573;-63
2023/09/05 08:20:28;;;;;;;16.55;15.88;;;22.70;99.90;;;;;;5118923;28;20197;-63
2023/09/05 08:22:54;;;;;;;15.75;15.25;;;22.70;99.90;;;;;;5116253;28;20575;-64
2023/09/05 08:25:24;;;;;;;16.27;15.68;;;22.80;99.90;;;;;;5114692;28;20226;-64
2023/09/05 08:27:50;;;;;;;16.02;15.43;;;22.90;99.90;;;;;;5123199;28;20194;-64
2023/09/05 08:30:17;;;;;;;15.95;15.35;;;23.00;99.90;;;;;;5120213;28;20205;-64
2023/09/05 08:32:44;;;;;;;16.05;15.32;;;23.20;99.90;;;;;;5114599;28;20569;-64
2023/09/05 08:35:12;;;;;;;14.02;13.52;;;23.30;99.90;;;;;;5114409;28;20226;-64
2023/09/05 08:37:39;;;;;;;13.68;13.18;;;23.50;99.90;;;;;;5114182;28;20228;-65
2023/09/05 08:40:08;;;;;;;14.07;13.57;;;23.60;99.90;;;;;;5114163;28;20202;-64
2023/09/05 08:42:38;;;;;;;13.18;12.77;;;23.70;99.90;;;;;;5123571;28;20209;-64
2023/09/05 08:45:11;;;;;;;13.27;12.88;;;23.70;99.90;;;;;;5119469;28;20229;-64
2023/09/05 08:47:38;;;;;;;13.25;12.85;;;23.80;99.90;;;;;;5117975;28;20297;-64
2023/09/05 08:50:08;;;;;;;13.88;13.38;;;24.00;99.90;;;;;;5115872;28;20224;-64
2023/09/05 08:52:38;;;;;;;13.43;12.93;;;24.10;99.90;;;;;;5114486;28;20625;-63
2023/09/05 08:55:07;;;;;;;15.07;14.57;;;24.10;99.90;;;;;;5116046;28;20223;-64
2023/09/05 08:57:35;;;;;;;18.23;17.52;;;24.10;99.90;;;;;;5114407;28;20229;-64
2023/09/05 09:00:06;;;;;;;12.93;12.43;;;24.10;99.90;;;;;;5113892;28;20206;-64
2023/09/05 09:02:35;;;;;;;13.02;12.52;;;24.10;99.90;;;;;;5113627;28;20574;-64
2023/09/05 09:05:02;;;;;;;21.88;20.83;;;24.30;99.90;;;;;;5113573;28;20237;-61
2023/09/05 09:07:30;;;;;;;12.15;11.68;;;24.30;99.90;;;;;;5113879;28;20197;-64
2023/09/05 09:09:59;;;;;;;12.20;11.80;;;24.30;99.90;;;;;;5114485;28;20625;-64
2023/09/05 09:12:30;;;;;;;12.57;12.07;;;24.50;99.90;;;;;;5113569;28;20201;-64
2023/09/05 09:14:59;;;;;;;12.20;11.80;;;24.60;99.90;;;;;;5114388;28;20237;-64
2023/09/05 09:17:25;;;;;;;13.70;13.20;;;24.70;99.90;;;;;;5114644;28;20225;-63
2023/09/05 09:19:53;;;;;;;12.65;12.25;;;24.60;99.90;;;;;;5113929;28;20212;-63
2023/09/05 09:22:24;;;;;;;12.70;12.30;;;24.70;99.90;;;;;;5113878;28;20210;-65
2023/09/05 09:24:52;;;;;;;12.95;12.48;;;24.90;99.90;;;;;;5114007;28;20234;-64
2023/09/05 09:27:22;;;;;;;13.65;13.07;;;25.00;99.90;;;;;;5114653;28;20198;-63
2023/09/05 09:29:54;;;;;;;13.63;13.13;;;25.10;99.90;;;;;;5114267;28;20277;-63
2023/09/05 09:32:22;;;;;;;14.63;14.13;;;25.20;99.90;;;;;;5113515;28;20209;-63
2023/09/05 09:34:50;;;;;;;15.50;15.00;;;25.30;99.90;;;;;;5140175;22;20994;-62
2023/09/05 09:37:25;;;;;;;16.65;16.05;;;25.40;99.90;;;;;;5134958;27;20221;-61
2023/09/05 09:39:58;;;;;;;16.17;15.57;;;25.40;99.90;;;;;;5134444;27;20251;-62
2023/09/05 09:42:27;;;;;;;16.67;15.98;;;25.50;99.90;;;;;;5132984;27;20212;-61
2023/09/05 09:44:54;;;;;;;19.20;18.40;;;25.70;99.90;;;;;;5133275;27;20316;-62
2023/09/05 09:47:22;;;;;;;20.02;19.30;;;25.80;99.90;;;;;;5133810;27;20617;-62
2023/09/05 09:49:50;;;;;;;21.58;20.80;;;25.90;99.90;;;;;;5133602;27;20571;-62
2023/09/05 09:52:19;;;;;;;22.90;22.10;;;26.00;99.90;;;;;;5132795;27;20246;-62
2023/09/05 09:54:48;;;;;;;23.48;22.67;;;26.00;99.90;;;;;;5133422;27;20282;-62
2023/09/05 09:57:23;;;;;;;25.15;24.15;;;26.00;99.90;;;;;;5133086;27;20220;-62
2023/09/05 09:59:59;;;;;;;28.05;27.05;;;26.10;99.90;;;;;;5133515;27;20215;-62
2023/09/05 10:02:26;;;;;;;28.15;27.15;;;26.20;99.90;;;;;;5132645;27;20206;-62
2023/09/05 10:04:54;;;;;;;30.95;29.85;;;26.20;99.90;;;;;;5132999;27;20311;-62
2023/09/05 10:07:22;;;;;;;27.88;26.88;;;26.40;99.90;;;;;;5133114;27;20197;-62
2023/09/05 10:09:52;;;;;;;28.58;27.58;;;26.40;99.90;;;;;;5132999;27;20657;-62
2023/09/05 10:12:21;;;;;;;29.88;28.88;;;26.50;99.90;;;;;;5132305;27;20203;-61
2023/09/05 10:14:49;;;;;;;33.75;32.55;;;26.60;99.90;;;;;;5132672;27;20221;-62
2023/09/05 10:17:20;;;;;;;85.53;80.10;;;26.80;99.90;;;;;;5132301;27;20231;-62
2023/09/05 10:19:50;;;;;;;44.83;42.92;;;26.80;99.90;;;;;;5132920;27;20205;-63
2023/09/05 10:22:18;;;;;;;31.45;30.35;;;26.80;99.90;;;;;;5132326;27;20201;-62
2023/09/05 10:24:46;;;;;;;198.18;183.98;;;26.80;99.90;;;;;;5132586;27;20221;-62
2023/09/05 10:27:13;;;;;;;28.17;27.20;;;26.80;99.90;;;;;;5132410;27;20196;-62
2023/09/05 10:29:45;;;;;;;41.40;39.45;;;26.80;99.90;;;;;;5133289;27;20615;-62
2023/09/05 10:32:14;;;;;;;63.28;60.15;;;26.90;99.90;;;;;;5132938;27;20582;-62
2023/09/05 10:34:58;;;;;;;72.95;69.35;;;27.00;99.90;;;;;;5132672;27;20273;-62
2023/09/05 10:37:29;;;;;;;29.58;28.55;;;27.00;99.90;;;;;;5132803;27;20220;-62
2023/09/05 10:39:57;;;;;;;44.10;42.30;;;26.90;99.90;;;;;;5132780;27;20239;-62
2023/09/05 10:42:28;;;;;;;107.72;101.07;;;27.00;99.90;;;;;;5132272;27;20244;-62
2023/09/05 10:44:56;;;;;;;74.90;71.18;;;27.10;99.90;;;;;;5133333;27;20575;-62
2023/09/05 10:47:28;;;;;;;30.77;29.70;;;27.10;99.90;;;;;;5115520;27;20202;-62
2023/09/05 10:50:00;;;;;;;31.88;30.77;;;27.10;99.90;;;;;;5093932;28;20213;-62
2023/09/05 10:52:29;;;;;;;34.60;33.40;;;27.30;99.90;;;;;;5104704;28;21004;-62
2023/09/05 10:54:56;;;;;;;34.03;32.83;;;27.20;99.90;;;;;;5101350;28;20230;-62
2023/09/05 10:57:37;;;;;;;33.58;32.40;;;27.50;99.90;;;;;;5101772;28;20551;-62
2023/09/05 11:00:14;;;;;;;33.92;32.75;;;27.70;99.90;;;;;;5092477;28;20738;-62
2023/09/05 11:02:41;;;;;;;33.20;32.03;;;27.70;99.90;;;;;;5093950;28;20206;-62
2023/09/05 11:05:13;;;;;;;33.13;31.98;;;27.70;99.90;;;;;;5099526;28;20227;-62
2023/09/05 11:07:43;;;;;;;29.02;28.02;;;27.80;99.90;;;;;;5105739;28;20261;-62
2023/09/05 11:10:12;;;;;;;32.42;31.25;;;28.00;99.90;;;;;;5098996;28;20202;-62
2023/09/05 11:12:39;;;;;;;45.45;43.80;;;28.20;99.90;;;;;;5097827;28;20202;-64
2023/09/05 11:15:08;;;;;;;36.47;35.20;;;28.30;99.90;;;;;;5097542;28;20226;-64
2023/09/05 11:17:36;;;;;;;41.83;40.33;;;28.20;99.90;;;;;;5097140;28;20218;-62
2023/09/05 11:20:07;;;;;;;277.02;256.00;;;28.20;99.90;;;;;;5097060;28;20203;-64
2023/09/05 11:22:35;;;;;;;40.78;39.35;;;28.20;99.90;;;;;;5097080;28;20259;-62
2023/09/05 11:25:07;;;;;;;49.70;47.92;;;28.10;99.90;;;;;;5097261;28;20225;-63
2023/09/05 11:27:34;;;;;;;43.42;41.85;;;28.30;99.90;;;;;;5096822;28;20274;-62
2023/09/05 11:30:04;;;;;;;43.75;42.20;;;28.40;99.90;;;;;;5095060;28;20202;-62
2023/09/05 11:32:33;;;;;;;42.33;40.80;;;28.40;99.90;;;;;;5116029;28;20233;-61
2023/09/05 11:35:01;;;;;;;58.35;56.15;;;28.50;99.90;;;;;;5115673;28;20234;-62
2023/09/05 11:37:30;;;;;;;44.63;43.05;;;28.60;99.90;;;;;;5119581;28;20222;-62
2023/09/05 11:40:10;;;;;;;51.50;49.65;;;28.70;99.90;;;;;;5120085;28;20669;-62
2023/09/05 11:42:37;;;;;;;42.55;41.05;;;28.80;99.90;;;;;;5117402;28;20212;-62
2023/09/05 11:45:15;;;;;;;47.17;45.45;;;29.00;99.90;;;;;;5118179;28;20579;-61
2023/09/05 11:47:42;;;;;;;56.83;54.70;;;29.00;99.90;;;;;;5116945;28;20198;-62
2023/09/05 11:50:10;;;;;;;46.70;45.00;;;28.90;99.90;;;;;;5117907;28;20214;-62
2023/09/05 11:52:40;;;;;;;51.70;49.85;;;29.10;99.90;;;;;;5116747;28;20288;-62
2023/09/05 11:55:10;;;;;;;53.10;51.17;;;29.00;99.90;;;;;;5114584;28;20252;-61
2023/09/05 11:57:38;;;;;;;48.10;46.40;;;29.20;99.90;;;;;;5114269;28;20224;-61
2023/09/05 12:00:11;;;;;;;54.05;52.13;;;29.20;99.90;;;;;;5113354;28;20206;-62
2023/09/05 12:02:38;;;;;;;62.80;60.50;;;29.40;99.90;;;;;;5113958;28;20588;-62
2023/09/05 12:05:09;;;;;;;154.63;146.40;;;29.40;99.90;;;;;;5114756;28;20650;-62
2023/09/05 12:07:36;;;;;;;61.58;59.40;;;29.30;99.90;;;;;;5114313;28;20206;-66
2023/09/05 12:10:04;;;;;;;58.17;56.08;;;29.30;99.90;;;;;;5114341;28;20210;-61
2023/09/05 12:12:32;;;;;;;59.25;56.85;;;29.50;99.90;;;;;;5113994;28;20202;-64
2023/09/05 12:15:00;;;;;;;58.13;56.05;;;29.50;99.90;;;;;;5114660;28;20309;-63
2023/09/05 12:17:28;;;;;;;54.08;52.15;;;29.60;99.90;;;;;;5117508;28;20198;-63
2023/09/05 12:19:57;;;;;;;56.58;54.53;;;29.70;99.90;;;;;;5117415;28;20205;-62
2023/09/05 12:22:25;;;;;;;110.88;105.75;;;29.80;99.90;;;;;;5117041;28;20301;-61
2023/09/05 12:25:14;;;;;;;68.95;66.47;;;29.80;99.90;;;;;;5117277;28;20228;-61
2023/09/05 12:27:44;;;;;;;197.13;185.05;;;29.80;99.90;;;;;;5117960;28;20197;-63
2023/09/05 12:30:28;;;;;;;103.65;99.03;;;29.70;99.90;;;;;;5117649;28;20289;-62